createdAt,value
2022-08-11T00:01:26.839Z,3.08
2022-08-11T00:04:01.907Z,2.50
2022-08-11T00:06:32.383Z,3.00
2022-08-11T00:09:00.580Z,3.28
2022-08-11T00:11:49.925Z,3.08
2022-08-11T00:14:25.692Z,2.78
2022-08-11T00:17:14.015Z,2.80
2022-08-11T00:20:12.826Z,2.97
2022-08-11T00:22:33.009Z,3.03
2022-08-11T00:25:02.818Z,3.08
2022-08-11T00:27:37.387Z,2.85
2022-08-11T00:30:09.342Z,2.72
2022-08-11T00:32:39.166Z,2.90
2022-08-11T00:35:51.480Z,3.10
2022-08-11T00:37:56.958Z,3.25
2022-08-11T00:40:46.406Z,3.05
2022-08-11T00:43:47.228Z,3.50
2022-08-11T00:46:25.750Z,3.42
2022-08-11T00:49:13.559Z,3.72
2022-08-11T00:52:08.635Z,3.15
2022-08-11T00:55:02.750Z,3.20
2022-08-11T00:57:55.483Z,3.67
2022-08-11T01:00:32.180Z,3.40
2022-08-11T01:03:04.518Z,3.53
2022-08-11T01:06:01.083Z,3.22
2022-08-11T01:08:50.958Z,3.75
2022-08-11T01:12:12.010Z,3.30
2022-08-11T01:15:13.756Z,3.30
2022-08-11T01:17:58.994Z,3.25
2022-08-11T01:21:07.897Z,3.55
2022-08-11T01:24:13.990Z,3.33
2022-08-11T01:27:18.765Z,3.60
2022-08-11T01:29:55.324Z,3.75
2022-08-11T01:32:40.417Z,3.35
2022-08-11T01:35:10.323Z,3.30
2022-08-11T01:38:20.900Z,3.75
2022-08-11T01:41:05.753Z,3.85
2022-08-11T01:44:21.656Z,3.40
2022-08-11T01:47:02.332Z,3.83
2022-08-11T01:50:07.774Z,3.72
2022-08-11T01:52:40.149Z,3.72
2022-08-11T01:55:23.995Z,3.60
2022-08-11T01:58:34.280Z,3.75
2022-08-11T02:01:37.630Z,4.00
2022-08-11T02:04:31.828Z,3.17
2022-08-11T02:07:02.663Z,3.88
2022-08-11T02:09:42.152Z,4.22
2022-08-11T02:12:29.667Z,3.83
2022-08-11T02:15:14.590Z,3.72
2022-08-11T02:17:56.983Z,3.47
2022-08-11T02:20:55.581Z,3.83
2022-08-11T02:24:04.858Z,4.10
2022-08-11T02:26:46.735Z,3.97
2022-08-11T02:29:27.887Z,4.13
2022-08-11T02:32:36.282Z,3.90
2022-08-11T02:35:32.834Z,4.28
2022-08-11T02:38:36.396Z,3.88
2022-08-11T02:41:46.621Z,4.25
2022-08-11T02:44:36.316Z,4.45
2022-08-11T02:47:15.168Z,4.13
2022-08-11T02:50:06.223Z,4.50
2022-08-11T02:53:05.852Z,4.55
2022-08-11T02:55:57.561Z,4.22
2022-08-11T02:58:31.124Z,4.70
2022-08-11T03:01:06.601Z,4.40
2022-08-11T03:03:51.363Z,5.15
2022-08-11T03:06:24.341Z,4.30
2022-08-11T03:09:04.057Z,4.55
2022-08-11T03:12:01.421Z,4.60
2022-08-11T03:15:06.903Z,4.93
2022-08-11T03:17:52.908Z,5.45
2022-08-11T03:20:33.063Z,4.82
2022-08-11T03:23:28.796Z,5.13
2022-08-11T03:26:34.378Z,4.53
2022-08-11T03:29:05.149Z,4.85
2022-08-11T03:31:56.907Z,4.67
2022-08-11T03:34:25.786Z,4.72
2022-08-11T03:37:16.224Z,4.97
2022-08-11T03:40:03.404Z,4.90
2022-08-11T03:42:48.414Z,5.07
2022-08-11T03:45:57.269Z,4.65
2022-08-11T03:49:01.042Z,5.40
2022-08-11T03:51:52.193Z,5.30
2022-08-11T03:54:27.893Z,4.65
2022-08-11T03:57:12.665Z,4.93
2022-08-11T03:59:42.500Z,4.88
2022-08-11T04:02:18.101Z,4.68
2022-08-11T04:05:24.727Z,4.80
2022-08-11T04:08:17.569Z,5.22
2022-08-11T04:11:16.292Z,5.57
2022-08-11T04:14:30.458Z,4.45
2022-08-11T04:17:25.155Z,5.93
2022-08-11T04:20:13.393Z,5.78
2022-08-11T04:23:13.583Z,5.82
2022-08-11T04:26:36.237Z,5.10
2022-08-11T04:30:03.718Z,5.32
2022-08-11T04:32:39.794Z,4.95
2022-08-11T04:35:28.446Z,5.32
2022-08-11T04:37:55.127Z,5.60
2022-08-11T04:40:59.416Z,6.00
2022-08-11T04:44:02.841Z,5.35
2022-08-11T04:46:52.097Z,4.95
2022-08-11T04:50:02.390Z,4.80
2022-08-11T04:52:53.392Z,4.78
2022-08-11T04:56:22.937Z,5.27
2022-08-11T04:59:34.351Z,4.78
2022-08-11T05:02:38.577Z,4.60
2022-08-11T05:05:42.520Z,4.78
2022-08-11T05:09:02.801Z,5.25
2022-08-11T05:11:44.925Z,5.40
2022-08-11T05:14:30.070Z,5.07
2022-08-11T05:17:18.514Z,5.05
2022-08-11T05:20:07.248Z,5.25
2022-08-11T05:22:53.656Z,5.10
2022-08-11T05:26:42.987Z,4.85
2022-08-11T05:29:19.340Z,5.35
2022-08-11T05:32:09.679Z,4.97
2022-08-11T05:34:54.472Z,4.80
2022-08-11T05:37:33.174Z,5.60
2022-08-11T05:40:30.751Z,5.07
2022-08-11T05:43:25.165Z,5.15
2022-08-11T05:46:19.725Z,4.90
2022-08-11T05:49:06.074Z,5.53
2022-08-11T05:52:05.025Z,4.97
2022-08-11T05:54:51.635Z,4.50
2022-08-11T05:57:50.396Z,4.57
2022-08-11T06:00:19.325Z,4.95
2022-08-11T06:02:55.231Z,5.10
2022-08-11T06:05:22.943Z,4.93
2022-08-11T06:07:57.011Z,5.20
2022-08-11T06:10:33.389Z,4.90
2022-08-11T06:13:01.788Z,5.30
2022-08-11T06:15:30.941Z,4.75
2022-08-11T06:18:01.174Z,4.78
2022-08-11T06:20:32.751Z,5.15
2022-08-11T06:23:03.750Z,5.10
2022-08-11T06:25:32.631Z,4.80
2022-08-11T06:28:00.754Z,4.45
2022-08-11T06:30:40.799Z,4.82
2022-08-11T06:33:11.705Z,5.10
2022-08-11T06:35:52.772Z,4.72
2022-08-11T06:38:31.172Z,4.72
2022-08-11T06:41:26.510Z,5.00
2022-08-11T06:44:08.045Z,4.50
2022-08-11T06:49:30.393Z,4.13
2022-08-11T06:52:34.672Z,5.25
2022-08-11T06:55:57.844Z,4.25
2022-08-11T06:58:49.937Z,4.32
2022-08-11T07:01:24.087Z,3.92
2022-08-11T07:04:06.740Z,3.88
2022-08-11T07:07:25.310Z,3.83
2022-08-11T07:10:52.164Z,3.80
2022-08-11T07:13:45.128Z,3.90
2022-08-11T07:16:18.268Z,3.80
2022-08-11T07:19:10.814Z,4.13
2022-08-11T07:22:04.736Z,3.90
2022-08-11T07:25:05.416Z,3.60
2022-08-11T07:28:02.053Z,3.05
2022-08-11T07:30:30.041Z,3.35
2022-08-11T07:33:00.576Z,3.15
2022-08-11T07:35:48.383Z,3.37
2022-08-11T07:38:43.142Z,2.80
2022-08-11T07:41:15.484Z,2.40
2022-08-11T07:43:44.850Z,2.72
2022-08-11T07:46:30.508Z,2.60
2022-08-11T07:49:16.967Z,2.90
2022-08-11T07:52:02.820Z,2.08
2022-08-11T07:54:33.373Z,2.42
2022-08-11T07:57:09.491Z,2.03
2022-08-11T08:00:06.955Z,2.45
2022-08-11T08:02:55.942Z,2.00
2022-08-11T08:05:41.402Z,2.25
2022-08-11T08:08:27.850Z,1.90
2022-08-11T08:11:15.417Z,2.17
2022-08-11T08:14:01.837Z,2.47
2022-08-11T08:16:49.419Z,2.17
2022-08-11T08:19:18.971Z,2.17
2022-08-11T08:21:47.145Z,2.10
2022-08-11T08:24:14.989Z,2.10
2022-08-11T08:26:59.033Z,2.55
2022-08-11T08:29:50.809Z,2.70
2022-08-11T08:32:19.468Z,2.88
2022-08-11T08:34:47.091Z,2.28
2022-08-11T08:37:44.903Z,1.98
2022-08-11T08:40:01.144Z,2.25
2022-08-11T08:42:30.994Z,2.25
2022-08-11T08:45:04.923Z,2.20
2022-08-11T08:47:42.470Z,2.30
2022-08-11T08:50:18.102Z,2.40
2022-08-11T08:52:57.827Z,2.17
2022-08-11T08:55:28.556Z,2.30
2022-08-11T08:58:00.553Z,2.03
2022-08-11T09:00:42.647Z,2.40
2022-08-11T09:03:38.226Z,2.53
2022-08-11T09:05:58.467Z,2.33
2022-08-11T09:08:25.841Z,2.30
2022-08-11T09:11:14.274Z,2.08
2022-08-11T09:13:44.294Z,2.35
2022-08-11T09:16:12.345Z,2.30
2022-08-11T09:18:41.490Z,2.20
2022-08-11T09:21:08.616Z,2.60
2022-08-11T09:24:14.941Z,2.53
2022-08-11T09:27:01.031Z,2.58
2022-08-11T09:29:29.306Z,2.15
2022-08-11T09:31:56.843Z,2.45
2022-08-11T09:34:26.361Z,2.38
2022-08-11T09:37:12.980Z,2.33
2022-08-11T09:40:00.739Z,2.30
2022-08-11T09:42:47.827Z,2.25
2022-08-11T09:45:16.318Z,2.40
2022-08-11T09:47:44.436Z,2.10
2022-08-11T09:50:12.120Z,2.42
2022-08-11T09:52:52.362Z,2.80
2022-08-11T09:55:27.681Z,2.35
2022-08-11T09:58:13.095Z,2.22
2022-08-11T10:01:02.522Z,2.20
2022-08-11T10:03:32.909Z,2.38
2022-08-11T10:06:22.298Z,2.03
2022-08-11T10:11:28.838Z,2.40
2022-08-11T10:14:34.018Z,2.55
2022-08-11T10:17:05.939Z,2.58
2022-08-11T10:19:35.718Z,2.17
2022-08-11T10:22:22.914Z,1.70
2022-08-11T10:25:14.698Z,1.70
2022-08-11T10:28:28.500Z,1.77
2022-08-11T10:30:56.461Z,1.88
2022-08-11T10:33:48.358Z,2.00
2022-08-11T10:36:25.478Z,1.77
2022-08-11T10:38:52.488Z,2.13
2022-08-11T10:41:38.720Z,1.70
2022-08-11T10:44:25.542Z,2.38
2022-08-11T10:47:11.527Z,1.73
2022-08-11T10:49:38.837Z,2.00
2022-08-11T10:52:24.829Z,1.90
2022-08-11T10:55:10.870Z,2.03
2022-08-11T10:58:05.175Z,2.78
2022-08-11T11:00:33.054Z,2.13
2022-08-11T11:03:16.747Z,2.40
2022-08-11T11:06:27.721Z,2.08
2022-08-11T11:08:57.638Z,2.50
2022-08-11T11:11:49.270Z,2.30
2022-08-11T11:14:46.275Z,2.30
2022-08-11T11:17:26.254Z,2.08
2022-08-11T11:19:57.651Z,2.10
2022-08-11T11:22:40.897Z,2.63
2022-08-11T11:25:35.758Z,2.20
2022-08-11T11:28:44.338Z,2.10
2022-08-11T11:31:22.283Z,2.30
2022-08-11T11:34:22.310Z,2.00
2022-08-11T11:36:58.104Z,2.10
2022-08-11T11:39:27.770Z,2.17
2022-08-11T11:41:57.106Z,1.92
2022-08-11T11:44:25.167Z,2.15
2022-08-11T11:46:52.469Z,1.98
2022-08-11T11:51:56.977Z,2.03
2022-08-11T11:54:29.846Z,2.03
2022-08-11T11:56:58.754Z,2.33
2022-08-11T11:59:46.934Z,2.20
2022-08-11T12:02:16.266Z,2.05
2022-08-11T12:04:45.562Z,2.00
2022-08-11T12:07:31.416Z,1.95
2022-08-11T12:09:59.176Z,2.00
2022-08-11T12:12:44.888Z,2.03
2022-08-11T12:15:12.682Z,2.15
2022-08-11T12:17:40.489Z,2.10
2022-08-11T12:20:33.327Z,1.80
2022-08-11T12:23:15.006Z,1.92
2022-08-11T12:26:25.852Z,1.80
2022-08-11T12:28:50.472Z,1.85
2022-08-11T12:31:17.455Z,2.30
2022-08-11T12:33:44.513Z,2.33
2022-08-11T12:36:15.714Z,1.92
2022-08-11T12:38:48.573Z,2.28
2022-08-11T12:41:39.394Z,1.83
2022-08-11T12:44:41.428Z,2.03
2022-08-11T12:47:09.066Z,1.83
2022-08-11T12:50:00.229Z,2.03
2022-08-11T12:52:30.157Z,1.88
2022-08-11T12:55:13.712Z,2.20
2022-08-11T12:58:05.594Z,1.98
2022-08-11T13:00:51.700Z,1.95
2022-08-11T13:03:40.771Z,1.48
2022-08-11T13:06:08.622Z,1.80
2022-08-11T13:08:40.539Z,1.85
2022-08-11T13:11:55.787Z,1.80
2022-08-11T13:14:16.785Z,1.65
2022-08-11T13:17:03.890Z,1.50
2022-08-11T13:19:31.656Z,1.85
2022-08-11T13:21:58.680Z,2.08
2022-08-11T13:24:25.649Z,1.52
2022-08-11T13:26:52.522Z,1.60
2022-08-11T13:29:27.416Z,1.50
2022-08-11T13:31:56.629Z,2.10
2022-08-11T13:34:26.658Z,1.55
2022-08-11T13:37:00.112Z,1.70
2022-08-11T13:39:30.100Z,2.28
2022-08-11T13:41:59.896Z,1.67
2022-08-11T13:44:33.337Z,1.88
2022-08-11T13:47:04.228Z,1.80
2022-08-11T13:49:34.793Z,1.60
2022-08-11T13:52:03.300Z,2.00
2022-08-11T13:54:38.231Z,1.80
2022-08-11T13:57:08.209Z,1.95
2022-08-11T13:59:43.699Z,1.52
2022-08-11T14:02:29.511Z,1.92
2022-08-11T14:05:01.302Z,1.88
2022-08-11T14:10:02.857Z,1.67
2022-08-11T14:12:53.948Z,1.83
2022-08-11T14:15:24.985Z,1.60
2022-08-11T14:17:57.210Z,2.10
2022-08-11T14:20:39.374Z,1.48
2022-08-11T14:23:11.098Z,1.65
2022-08-11T14:26:01.925Z,1.70
2022-08-11T14:28:37.450Z,1.90
2022-08-11T14:31:08.410Z,1.90
2022-08-11T14:33:58.460Z,1.90
2022-08-11T14:36:25.930Z,1.70
2022-08-11T14:38:56.399Z,1.90
2022-08-11T14:42:10.960Z,1.58
2022-08-11T14:44:51.138Z,1.77
2022-08-11T14:47:23.798Z,2.05
2022-08-11T14:49:58.472Z,1.88
2022-08-11T14:52:38.327Z,1.90
2022-08-11T14:55:25.027Z,1.73
2022-08-11T14:57:54.838Z,2.00
2022-08-11T15:00:23.971Z,1.95
2022-08-11T15:03:10.453Z,1.83
2022-08-11T15:05:56.107Z,1.50
2022-08-11T15:08:45.569Z,1.75
2022-08-11T15:11:32.637Z,1.63
2022-08-11T15:14:02.022Z,2.22
2022-08-11T15:16:47.961Z,1.65
2022-08-11T15:19:15.794Z,1.80
2022-08-11T15:22:01.114Z,1.77
2022-08-11T15:24:30.335Z,2.10
2022-08-11T15:27:18.997Z,1.63
2022-08-11T15:30:05.274Z,1.65
2022-08-11T15:32:52.263Z,1.60
2022-08-11T15:35:48.977Z,1.80
2022-08-11T15:38:19.848Z,1.80
2022-08-11T15:43:57.560Z,1.77
2022-08-11T15:46:33.163Z,1.67
2022-08-11T15:49:11.122Z,1.73
2022-08-11T15:51:44.426Z,1.42
2022-08-11T15:54:16.176Z,2.13
2022-08-11T15:56:46.264Z,1.80
2022-08-11T15:59:41.564Z,1.80
2022-08-11T16:02:32.925Z,1.48
2022-08-11T16:05:05.954Z,1.75
2022-08-11T16:07:36.412Z,2.00
2022-08-11T16:10:18.739Z,1.55
2022-08-11T16:13:20.757Z,1.80
2022-08-11T16:16:15.359Z,1.73
2022-08-11T16:18:56.417Z,1.50
2022-08-11T16:21:39.145Z,1.90
2022-08-11T16:27:02.257Z,1.77
2022-08-11T16:27:08.098Z,1.60
2022-08-11T16:29:45.451Z,1.70
2022-08-11T16:32:20.456Z,1.77
2022-08-11T16:35:12.745Z,1.83
2022-08-11T16:38:00.363Z,2.00
2022-08-11T16:40:29.466Z,1.65
2022-08-11T16:43:16.260Z,1.80
2022-08-11T16:46:02.369Z,1.77
2022-08-11T16:48:37.457Z,1.60
2022-08-11T16:51:10.980Z,1.80
2022-08-11T16:54:00.011Z,1.67
2022-08-11T16:56:49.179Z,1.73
2022-08-11T16:59:22.572Z,1.80
2022-08-11T17:01:53.780Z,1.95
2022-08-11T17:04:41.962Z,1.65
2022-08-11T17:07:41.959Z,1.65
2022-08-11T17:10:53.306Z,1.77
2022-08-11T17:13:27.905Z,1.55
2022-08-11T17:16:10.039Z,1.60
2022-08-11T17:18:57.960Z,1.90
2022-08-11T17:22:05.578Z,1.70
2022-08-11T17:24:36.402Z,1.30
2022-08-11T17:27:05.620Z,1.65
2022-08-11T17:29:54.401Z,1.60
2022-08-11T17:32:53.991Z,1.80
2022-08-11T17:35:31.111Z,1.50
2022-08-11T17:38:12.429Z,2.20
2022-08-11T17:41:02.811Z,1.83
2022-08-11T17:43:49.387Z,1.27
2022-08-11T17:46:35.873Z,1.30
2022-08-11T17:49:08.216Z,1.38
2022-08-11T17:51:55.908Z,1.33
2022-08-11T17:54:42.817Z,1.40
2022-08-11T17:57:30.160Z,1.40
2022-08-11T17:59:58.571Z,1.42
2022-08-11T18:02:53.604Z,1.13
2022-08-11T18:05:22.567Z,1.33
2022-08-11T18:08:11.992Z,1.27
2022-08-11T18:10:58.387Z,1.50
2022-08-11T18:13:47.357Z,1.58
2022-08-11T18:16:32.671Z,1.75
2022-08-11T18:19:18.109Z,1.30
2022-08-11T18:22:12.899Z,1.42
2022-08-11T18:25:09.913Z,1.40
2022-08-11T18:27:58.884Z,1.30
2022-08-11T18:30:44.821Z,1.40
2022-08-11T18:34:03.995Z,1.20
2022-08-11T18:36:49.509Z,1.30
2022-08-11T18:39:37.594Z,1.30
2022-08-11T18:42:30.375Z,1.15
2022-08-11T18:45:31.178Z,1.20
2022-08-11T18:48:33.814Z,1.40
2022-08-11T18:51:31.004Z,1.20
2022-08-11T18:54:27.693Z,1.25
2022-08-11T18:57:16.804Z,1.50
2022-08-11T19:00:04.087Z,1.73
2022-08-11T19:02:50.539Z,1.40
2022-08-11T19:06:32.116Z,1.38
2022-08-11T19:08:53.933Z,1.30
2022-08-11T19:11:42.658Z,1.60
2022-08-11T19:14:30.790Z,1.60
2022-08-11T19:17:44.107Z,1.40
2022-08-11T19:20:29.451Z,1.63
2022-08-11T19:23:16.009Z,1.42
2022-08-11T19:26:03.649Z,1.50
2022-08-11T19:28:50.321Z,2.10
2022-08-11T19:31:39.833Z,1.60
2022-08-11T19:34:28.933Z,1.50
2022-08-11T19:37:15.234Z,1.30
2022-08-11T19:40:01.306Z,1.60
2022-08-11T19:42:47.878Z,1.50
2022-08-11T19:45:34.775Z,1.50
2022-08-11T19:48:31.853Z,1.50
2022-08-11T19:51:19.301Z,1.50
2022-08-11T19:54:06.453Z,1.80
2022-08-11T19:56:52.478Z,1.80
2022-08-11T19:59:38.877Z,1.60
2022-08-11T20:02:25.043Z,2.15
2022-08-11T20:05:10.306Z,1.90
2022-08-11T20:07:56.473Z,1.83
2022-08-11T20:10:43.042Z,1.80
2022-08-11T20:13:29.969Z,1.77
2022-08-11T20:16:17.337Z,2.53
2022-08-11T20:19:04.342Z,2.10
2022-08-11T20:21:50.392Z,2.35
2022-08-11T20:24:37.149Z,2.20
2022-08-11T20:27:25.381Z,1.55
2022-08-11T20:30:12.475Z,2.20
2022-08-11T20:32:59.922Z,1.90
2022-08-11T20:35:46.467Z,2.15
2022-08-11T20:38:34.534Z,1.70
2022-08-11T20:41:22.117Z,1.70
2022-08-11T20:44:09.759Z,2.03
2022-08-11T20:46:57.964Z,2.00
2022-08-11T20:55:45.738Z,1.90
2022-08-11T21:01:45.420Z,1.70
2022-08-11T21:04:31.098Z,1.92
2022-08-11T21:07:28.648Z,2.08
2022-08-11T21:10:23.233Z,1.77
2022-08-11T21:13:25.317Z,1.90
2022-08-11T21:16:25.726Z,2.25
2022-08-11T21:19:15.797Z,1.77
2022-08-11T21:22:03.533Z,1.88
2022-08-11T21:24:50.982Z,1.75
2022-08-11T21:27:38.357Z,1.80
2022-08-11T21:30:24.304Z,1.92
2022-08-11T21:33:11.695Z,1.92
2022-08-11T21:35:56.982Z,1.80
2022-08-11T21:38:43.229Z,1.80
2022-08-11T21:41:30.132Z,2.00
2022-08-11T21:44:16.715Z,1.70
2022-08-11T21:47:03.338Z,2.47
2022-08-11T21:49:51.030Z,2.03
2022-08-11T21:52:36.297Z,2.17
2022-08-11T21:55:21.877Z,2.13
2022-08-11T21:58:07.919Z,2.25
2022-08-11T22:00:53.378Z,2.20
2022-08-11T22:03:49.343Z,2.25
2022-08-11T22:06:36.572Z,1.77
2022-08-11T22:09:21.931Z,2.20
2022-08-11T22:12:33.817Z,2.00
2022-08-11T22:15:13.684Z,2.25
2022-08-11T22:17:59.087Z,2.10
2022-08-11T22:20:46.075Z,1.98
2022-08-11T22:23:36.976Z,2.25
2022-08-11T22:26:24.239Z,2.20
2022-08-11T22:29:09.748Z,2.22
2022-08-11T22:31:57.130Z,2.40
2022-08-11T22:34:51.225Z,1.80
2022-08-11T22:37:40.231Z,2.13
2022-08-11T22:40:27.401Z,2.38
2022-08-11T22:43:12.804Z,1.98
2022-08-11T22:45:58.357Z,2.33
2022-08-11T22:48:47.291Z,2.45
2022-08-11T22:51:34.300Z,2.15
2022-08-11T22:54:22.160Z,2.33
2022-08-11T22:57:08.208Z,2.45
2022-08-11T22:59:55.214Z,2.38
2022-08-11T23:02:40.664Z,2.33
2022-08-11T23:05:27.499Z,2.30
2022-08-11T23:08:15.351Z,2.50
2022-08-11T23:11:01.824Z,2.22
2022-08-11T23:13:49.882Z,2.53
2022-08-11T23:16:38.941Z,2.60
2022-08-11T23:20:10.487Z,2.40
2022-08-11T23:22:39.440Z,2.28
2022-08-11T23:25:35.170Z,2.20
2022-08-11T23:28:21.839Z,2.40
2022-08-11T23:31:12.363Z,2.83
2022-08-11T23:34:00.419Z,2.83
2022-08-11T23:36:47.745Z,2.50
2022-08-11T23:39:34.098Z,2.80
2022-08-11T23:42:20.052Z,2.55
2022-08-11T23:45:09.538Z,2.67
2022-08-11T23:47:56.701Z,2.47
2022-08-11T23:50:43.234Z,2.47
2022-08-11T23:53:29.403Z,2.70
2022-08-11T23:56:14.508Z,2.47
2022-08-11T23:58:59.886Z,3.03
